sensor_id;sensor_type;location;lat;lon;timestamp;temperature;humidity
58566;DHT22;47788;46.172;-1.158;2022-08-04T20:30:29;23.60;99.90
58566;DHT22;47788;46.172;-1.158;2022-08-04T20:32:56;23.70;99.90
58566;DHT22;47788;46.172;-1.158;2022-08-04T20:35:21;23.80;99.90
58566;DHT22;47788;46.172;-1.158;2022-08-04T20:37:50;23.80;99.90
58566;DHT22;47788;46.172;-1.158;2022-08-04T20:40:17;23.80;99.90
58566;DHT22;47788;46.172;-1.158;2022-08-04T20:42:43;23.90;99.90
58566;DHT22;47788;46.172;-1.158;2022-08-04T20:45:09;24.00;99.90
58566;DHT22;47788;46.172;-1.158;2022-08-04T20:47:35;24.10;99.90
58566;DHT22;47788;46.172;-1.158;2022-08-04T20:50:02;24.20;99.90
58566;DHT22;47788;46.172;-1.158;2022-08-04T20:52:28;24.20;99.90
58566;DHT22;47788;46.172;-1.158;2022-08-04T20:54:54;24.30;99.90
58566;DHT22;47788;46.172;-1.158;2022-08-04T20:57:20;24.30;99.90
58566;DHT22;47788;46.172;-1.158;2022-08-04T20:59:46;24.30;99.90
58566;DHT22;47788;46.172;-1.158;2022-08-04T21:02:11;24.20;99.90
58566;DHT22;47788;46.172;-1.158;2022-08-04T21:04:37;24.20;99.90
58566;DHT22;47788;46.172;-1.158;2022-08-04T21:07:10;24.20;99.90
58566;DHT22;47788;46.172;-1.158;2022-08-04T21:09:38;24.30;99.90
58566;DHT22;47788;46.172;-1.158;2022-08-04T21:12:05;24.30;99.90
58566;DHT22;47788;46.172;-1.158;2022-08-04T21:14:31;24.20;99.90
58566;DHT22;47788;46.172;-1.158;2022-08-04T21:16:57;24.20;99.90
58566;DHT22;47788;46.172;-1.158;2022-08-04T21:19:24;24.30;99.90
58566;DHT22;47788;46.172;-1.158;2022-08-04T21:21:50;24.40;99.90
58566;DHT22;47788;46.172;-1.158;2022-08-04T21:24:16;24.40;99.90
58566;DHT22;47788;46.172;-1.158;2022-08-04T21:26:42;24.40;99.90
58566;DHT22;47788;46.172;-1.158;2022-08-04T21:29:07;24.40;99.90
58566;DHT22;47788;46.172;-1.158;2022-08-04T21:31:33;24.40;99.90
58566;DHT22;47788;46.172;-1.158;2022-08-04T21:33:59;24.40;99.90
58566;DHT22;47788;46.172;-1.158;2022-08-04T21:36:24;24.40;99.90
58566;DHT22;47788;46.172;-1.158;2022-08-04T21:38:50;24.40;99.90
58566;DHT22;47788;46.172;-1.158;2022-08-04T21:41:16;24.40;99.90
58566;DHT22;47788;46.172;-1.158;2022-08-04T21:43:41;24.40;99.90
58566;DHT22;47788;46.172;-1.158;2022-08-04T21:46:07;24.40;99.90
58566;DHT22;47788;46.172;-1.158;2022-08-04T21:48:33;24.40;99.90
58566;DHT22;47788;46.172;-1.158;2022-08-04T21:51:19;24.50;99.90
58566;DHT22;47788;46.172;-1.158;2022-08-04T21:53:44;24.40;99.90
58566;DHT22;47788;46.172;-1.158;2022-08-04T21:56:10;24.40;99.90
58566;DHT22;47788;46.172;-1.158;2022-08-04T21:58:37;24.40;99.90
58566;DHT22;47788;46.172;-1.158;2022-08-04T22:01:04;24.30;99.90
58566;DHT22;47788;46.172;-1.158;2022-08-04T22:03:32;24.30;99.90
58566;DHT22;47788;46.172;-1.158;2022-08-04T22:05:58;24.20;99.90
58566;DHT22;47788;46.172;-1.158;2022-08-04T22:08:24;24.20;99.90
58566;DHT22;47788;46.172;-1.158;2022-08-04T22:10:49;24.30;99.90
58566;DHT22;47788;46.172;-1.158;2022-08-04T22:13:15;24.30;99.90
58566;DHT22;47788;46.172;-1.158;2022-08-04T22:15:40;24.20;99.90
58566;DHT22;47788;46.172;-1.158;2022-08-04T22:18:06;24.20;99.90
58566;DHT22;47788;46.172;-1.158;2022-08-04T22:20:32;24.10;99.90
58566;DHT22;47788;46.172;-1.158;2022-08-04T22:22:57;24.10;99.90
58566;DHT22;47788;46.172;-1.158;2022-08-04T22:25:23;24.10;99.90
58566;DHT22;47788;46.172;-1.158;2022-08-04T22:27:49;24.10;99.90
58566;DHT22;47788;46.172;-1.158;2022-08-04T22:30:33;24.10;99.90
58566;DHT22;47788;46.172;-1.158;2022-08-04T22:33:00;24.00;99.90
58566;DHT22;47788;46.172;-1.158;2022-08-04T22:35:25;24.00;99.90
58566;DHT22;47788;46.172;-1.158;2022-08-04T22:37:51;23.90;99.90
58566;DHT22;47788;46.172;-1.158;2022-08-04T22:40:17;23.90;99.90
58566;DHT22;47788;46.172;-1.158;2022-08-04T22:42:43;23.90;99.90
58566;DHT22;47788;46.172;-1.158;2022-08-04T22:45:09;23.90;99.90
58566;DHT22;47788;46.172;-1.158;2022-08-04T22:47:35;23.90;99.90
58566;DHT22;47788;46.172;-1.158;2022-08-04T22:50:01;23.90;99.90
58566;DHT22;47788;46.172;-1.158;2022-08-04T22:52:27;23.80;99.90
58566;DHT22;47788;46.172;-1.158;2022-08-04T22:54:53;23.70;99.90
58566;DHT22;47788;46.172;-1.158;2022-08-04T22:57:19;23.70;99.90
58566;DHT22;47788;46.172;-1.158;2022-08-04T22:59:44;23.70;99.90
58566;DHT22;47788;46.172;-1.158;2022-08-04T23:02:10;23.70;99.90
58566;DHT22;47788;46.172;-1.158;2022-08-04T23:04:36;23.60;99.90
58566;DHT22;47788;46.172;-1.158;2022-08-04T23:07:02;23.60;99.90
58566;DHT22;47788;46.172;-1.158;2022-08-04T23:09:29;23.50;99.90
58566;DHT22;47788;46.172;-1.158;2022-08-04T23:11:55;23.40;99.90
58566;DHT22;47788;46.172;-1.158;2022-08-04T23:14:20;23.40;99.90
58566;DHT22;47788;46.172;-1.158;2022-08-04T23:16:46;23.30;99.90
58566;DHT22;47788;46.172;-1.158;2022-08-04T23:19:12;23.30;99.90
58566;DHT22;47788;46.172;-1.158;2022-08-04T23:21:38;23.20;99.90
58566;DHT22;47788;46.172;-1.158;2022-08-04T23:24:04;23.20;99.90
58566;DHT22;47788;46.172;-1.158;2022-08-04T23:26:30;23.30;99.90
58566;DHT22;47788;46.172;-1.158;2022-08-04T23:28:56;23.30;99.90
58566;DHT22;47788;46.172;-1.158;2022-08-04T23:31:22;23.30;99.90
58566;DHT22;47788;46.172;-1.158;2022-08-04T23:33:48;23.30;99.90
58566;DHT22;47788;46.172;-1.158;2022-08-04T23:36:13;23.30;99.90
58566;DHT22;47788;46.172;-1.158;2022-08-04T23:38:39;23.30;99.90
58566;DHT22;47788;46.172;-1.158;2022-08-04T23:41:06;23.30;99.90
58566;DHT22;47788;46.172;-1.158;2022-08-04T23:43:32;23.20;99.90
58566;DHT22;47788;46.172;-1.158;2022-08-04T23:45:58;23.20;99.90
58566;DHT22;47788;46.172;-1.158;2022-08-04T23:48:25;23.20;99.90
58566;DHT22;47788;46.172;-1.158;2022-08-04T23:50:51;23.20;99.90
58566;DHT22;47788;46.172;-1.158;2022-08-04T23:53:16;23.10;99.90
58566;DHT22;47788;46.172;-1.158;2022-08-04T23:55:42;23.10;99.90
58566;DHT22;47788;46.172;-1.158;2022-08-04T23:58:08;23.00;99.90
